Wetterdaten: Woche 06.06.16 - 12.06.16 (KW23)
Datum Zeit Auen-Temp. Temp gefhlt Luftfeuchte Luftdruck Regen Wind Richtung Sonnenschein Taupunkt Windben
06.06.2016 00:00 10,6 C 10,4 C 87 % 1019,0 hPa 0,0 mm 0,0 km/h (0 Bft) N 0,00 h 8,6 C 0,0 km/h (0 Bft)
06.06.2016 01:00 10,2 C 10,0 C 87 % 1019,1 hPa 0,0 mm 0,0 km/h (0 Bft) N 0,00 h 8,1 C 0,0 km/h (0 Bft)
06.06.2016 02:00 9,4 C 9,1 C 88 % 1018,7 hPa 0,0 mm 0,0 km/h (0 Bft) N 0,00 h 7,6 C 0,0 km/h (0 Bft)
06.06.2016 03:00 8,8 C 8,5 C 88 % 1018,6 hPa 0,0 mm 0,0 km/h (0 Bft) N 0,00 h 6,9 C 0,0 km/h (0 Bft)
06.06.2016 04:00 8,8 C 8,6 C 88 % 1018,5 hPa 0,0 mm 0,0 km/h (0 Bft) N 0,00 h 7,0 C 0,0 km/h (0 Bft)
06.06.2016 05:00 8,6 C 8,3 C 88 % 1018,6 hPa 0,0 mm 0,0 km/h (0 Bft) N 0,00 h 6,7 C 0,0 km/h (0 Bft)
06.06.2016 06:00 10,1 C 12,7 C 88 % 1018,0 hPa 0,0 mm 0,0 km/h (0 Bft) N 0,50 h 8,2 C 0,0 km/h (0 Bft)
06.06.2016 07:00 13,8 C 21,2 C 87 % 1016,3 hPa 0,0 mm 0,0 km/h (0 Bft) N 1,00 h 11,6 C 0,0 km/h (0 Bft)
06.06.2016 08:00 16,1 C 22,1 C 82 % 1013,1 hPa 0,0 mm 0,1 km/h (0 Bft) N 1,00 h 12,9 C 1,1 km/h (1 Bft)
06.06.2016 09:00 17,0 C 21,4 C 77 % 1011,9 hPa 0,0 mm 3,0 km/h (1 Bft) O-NO 1,00 h 12,9 C 6,3 km/h (2 Bft)
06.06.2016 10:00 18,6 C 23,6 C 70 % 1006,8 hPa 0,0 mm 7,5 km/h (2 Bft) O-NO 1,00 h 13,0 C 11,9 km/h (2 Bft)
06.06.2016 11:00 19,2 C 23,1 C 67 % 1005,0 hPa 0,0 mm 8,6 km/h (2 Bft) N-NO 0,92 h 12,9 C 10,3 km/h (2 Bft)
06.06.2016 12:00 20,6 C 24,9 C 63 % 1004,4 hPa 0,0 mm 8,1 km/h (2 Bft) N-NO 1,00 h 13,2 C 10,8 km/h (2 Bft)
06.06.2016 13:00 21,3 C 25,5 C 58 % 1004,6 hPa 0,0 mm 10,8 km/h (2 Bft) NO 1,00 h 12,7 C 13,1 km/h (3 Bft)
06.06.2016 14:00 21,6 C 25,3 C 57 % 1007,2 hPa 0,0 mm 8,7 km/h (2 Bft) O-NO 0,75 h 12,6 C 12,5 km/h (3 Bft)
06.06.2016 15:00 22,2 C 26,1 C 55 % 1009,3 hPa 0,0 mm 10,8 km/h (2 Bft) N-NO 0,92 h 12,6 C 14,1 km/h (3 Bft)
06.06.2016 16:00 22,1 C 26,4 C 54 % 1015,2 hPa 0,0 mm 9,5 km/h (2 Bft) NO 1,00 h 12,4 C 10,4 km/h (2 Bft)
06.06.2016 17:00 21,8 C 23,6 C 54 % 1019,8 hPa 0,0 mm 6,9 km/h (2 Bft) O-NO 0,17 h 12,0 C 7,4 km/h (2 Bft)
06.06.2016 18:00 20,1 C 21,5 C 61 % 1019,8 hPa 0,0 mm 0,7 km/h (0 Bft) N-NO 0,00 h 12,3 C 0,0 km/h (0 Bft)
06.06.2016 19:00 20,0 C 25,9 C 63 % 1020,0 hPa 0,0 mm 0,0 km/h (0 Bft) N 1,00 h 12,8 C 0,0 km/h (0 Bft)
06.06.2016 20:00 18,6 C 20,9 C 68 % 1020,3 hPa 0,0 mm 0,1 km/h (0 Bft) N 0,25 h 12,6 C 0,0 km/h (0 Bft)
06.06.2016 21:00 16,0 C 16,0 C 77 % 1020,6 hPa 0,0 mm 0,0 km/h (0 Bft) N 0,00 h 11,8 C 0,0 km/h (0 Bft)
06.06.2016 22:00 14,1 C 14,1 C 80 % 1020,6 hPa 0,0 mm 0,0 km/h (0 Bft) N 0,00 h 10,6 C 0,0 km/h (0 Bft)
06.06.2016 23:00 12,8 C 14,0 C 82 % 1020,5 hPa 0,0 mm 0,0 km/h (0 Bft) N 0,00 h 9,9 C 0,0 km/h (0 Bft)
07.06.2016 00:00 12,1 C 14,0 C 84 % 1020,7 hPa 0,0 mm 0,0 km/h (0 Bft) N 0,00 h 9,4 C 0,0 km/h (0 Bft)
07.06.2016 01:00 11,4 C 12,4 C 85 % 1020,7 hPa 0,0 mm 0,0 km/h (0 Bft) N 0,00 h 9,0 C 0,0 km/h (0 Bft)
07.06.2016 02:00 10,7 C 7,0 C 86 % 1020,6 hPa 0,0 mm 0,0 km/h (0 Bft) N 0,00 h 8,4 C 0,0 km/h (0 Bft)
07.06.2016 03:00 10,2 C 6,7 C 86 % 1020,6 hPa 0,0 mm 0,0 km/h (0 Bft) N 0,00 h 8,0 C 0,0 km/h (0 Bft)
07.06.2016 04:00 9,9 C 6,4 C 86 % 1020,4 hPa 0,0 mm 0,0 km/h (0 Bft) N 0,00 h 7,7 C 0,0 km/h (0 Bft)
07.06.2016 05:00 9,4 C 6,1 C 87 % 1020,3 hPa 0,0 mm 0,0 km/h (0 Bft) N 0,00 h 7,3 C 0,0 km/h (0 Bft)
07.06.2016 06:00 11,6 C 8,8 C 87 % 1020,8 hPa 0,0 mm 0,0 km/h (0 Bft) N 0,08 h 9,5 C 0,0 km/h (0 Bft)
07.06.2016 07:00 16,5 C 19,3 C 79 % 1021,2 hPa 0,0 mm 0,0 km/h (0 Bft) N 0,42 h 12,8 C 0,0 km/h (0 Bft)
07.06.2016 08:00 19,7 C 24,3 C 68 % 1022,1 hPa 0,0 mm 0,1 km/h (0 Bft) W 0,50 h 13,6 C 0,0 km/h (0 Bft)
07.06.2016 09:00 21,7 C 27,8 C 62 % 1022,5 hPa 0,0 mm 5,9 km/h (2 Bft) W 1,00 h 14,1 C 10,3 km/h (2 Bft)
07.06.2016 10:00 22,9 C 28,4 C 57 % 1023,2 hPa 0,0 mm 6,4 km/h (2 Bft) NW 1,00 h 14,0 C 7,2 km/h (2 Bft)
07.06.2016 11:00 23,6 C 28,9 C 54 % 1023,7 hPa 0,0 mm 6,6 km/h (2 Bft) N-NO 1,00 h 13,7 C 10,7 km/h (2 Bft)
07.06.2016 12:00 23,9 C 29,1 C 50 % 1023,8 hPa 0,0 mm 6,4 km/h (2 Bft) N-NO 0,92 h 13,0 C 9,4 km/h (2 Bft)
07.06.2016 13:00 23,3 C 26,8 C 46 % 1023,3 hPa 0,0 mm 8,6 km/h (2 Bft) N-NO 0,83 h 11,0 C 9,9 km/h (2 Bft)
07.06.2016 14:00 23,9 C 28,6 C 44 % 1022,8 hPa 0,0 mm 7,9 km/h (2 Bft) NO 0,83 h 11,0 C 10,9 km/h (2 Bft)
07.06.2016 15:00 23,2 C 26,8 C 46 % 1022,4 hPa 0,0 mm 3,7 km/h (1 Bft) N-NO 0,67 h 11,0 C 3,8 km/h (1 Bft)
07.06.2016 16:00 22,0 C 23,9 C 53 % 1021,9 hPa 0,0 mm 0,9 km/h (0 Bft) NO 0,00 h 12,1 C 0,9 km/h (0 Bft)
07.06.2016 17:00 22,6 C 25,6 C 51 % 1021,4 hPa 0,0 mm 2,7 km/h (1 Bft) O-NO 0,42 h 11,8 C 4,4 km/h (1 Bft)
07.06.2016 18:00 22,1 C 23,4 C 50 % 1021,0 hPa 0,0 mm 4,5 km/h (1 Bft) N-NO 0,00 h 11,0 C 7,1 km/h (2 Bft)
07.06.2016 19:00 21,1 C 23,2 C 54 % 1021,2 hPa 0,0 mm 1,8 km/h (1 Bft) N-NO 0,25 h 11,5 C 2,1 km/h (1 Bft)
07.06.2016 20:00 19,0 C 20,0 C 60 % 1021,2 hPa 0,0 mm 0,0 km/h (0 Bft) N 0,15 h 10,9 C 0,0 km/h (0 Bft)
07.06.2016 21:00 15,9 C 16,1 C 71 % 1021,2 hPa 0,0 mm 0,0 km/h (0 Bft) N 0,00 h 10,6 C 0,0 km/h (0 Bft)
07.06.2016 22:00 14,1 C 13,9 C 75 % 1021,5 hPa 0,0 mm 0,0 km/h (0 Bft) N 0,00 h 9,7 C 0,0 km/h (0 Bft)
07.06.2016 23:00 12,9 C 12,4 C 77 % 1021,6 hPa 0,0 mm 0,0 km/h (0 Bft) N 0,00 h 9,1 C 0,0 km/h (0 Bft)
08.06.2016 00:00 12,3 C 11,8 C 80 % 1021,4 hPa 0,0 mm 0,1 km/h (0 Bft) N 0,00 h 9,0 C 0,0 km/h (0 Bft)
08.06.2016 01:00 12,5 C 12,4 C 82 % 1021,1 hPa 0,0 mm 1,4 km/h (1 Bft) S-SO 0,00 h 9,5 C 4,5 km/h (1 Bft)
08.06.2016 02:00 12,3 C 12,1 C 82 % 1020,8 hPa 0,0 mm 1,8 km/h (1 Bft) S-SO 0,00 h 9,3 C 1,0 km/h (0 Bft)
08.06.2016 03:00 12,7 C 12,7 C 81 % 1020,5 hPa 0,0 mm 7,4 km/h (2 Bft) SW 0,00 h 9,6 C 10,6 km/h (2 Bft)
08.06.2016 04:00 13,2 C 13,1 C 80 % 1020,4 hPa 0,0 mm 7,5 km/h (2 Bft) S 0,00 h 9,7 C 8,2 km/h (2 Bft)
08.06.2016 05:00 12,7 C 12,7 C 81 % 1020,4 hPa 0,0 mm 1,9 km/h (1 Bft) W-SW 0,00 h 9,5 C 4,1 km/h (1 Bft)
08.06.2016 06:00 13,3 C 13,1 C 79 % 1020,7 hPa 0,7 mm 0,5 km/h (0 Bft) W-SW 0,00 h 9,8 C 1,0 km/h (0 Bft)
08.06.2016 07:00 13,0 C 13,1 C 83 % 1021,1 hPa 0,0 mm 0,0 km/h (0 Bft) N 0,00 h 10,3 C 0,0 km/h (0 Bft)
08.06.2016 08:00 14,2 C 14,4 C 84 % 1021,1 hPa 0,0 mm 0,0 km/h (0 Bft) N 0,00 h 11,5 C 0,0 km/h (0 Bft)
08.06.2016 09:00 14,8 C 15,0 C 83 % 1020,8 hPa 0,0 mm 0,0 km/h (0 Bft) N 0,00 h 11,9 C 0,0 km/h (0 Bft)
08.06.2016 10:00 15,2 C 16,1 C 82 % 1020,5 hPa 0,0 mm 0,0 km/h (0 Bft) N 0,00 h 12,1 C 0,0 km/h (0 Bft)
08.06.2016 11:00 15,8 C 16,9 C 80 % 1020,4 hPa 0,7 mm 0,6 km/h (0 Bft) W-SW 0,00 h 12,3 C 1,6 km/h (1 Bft)
08.06.2016 12:00 15,6 C 15,6 C 79 % 1020,5 hPa 0,7 mm 3,2 km/h (1 Bft) W-NW 0,00 h 12,0 C 3,9 km/h (1 Bft)
08.06.2016 13:00 16,9 C 18,7 C 77 % 1020,3 hPa 0,0 mm 4,2 km/h (1 Bft) W 0,00 h 12,9 C 7,1 km/h (2 Bft)
08.06.2016 14:00 18,1 C 22,8 C 73 % 1020,0 hPa 0,0 mm 5,5 km/h (1 Bft) W-NW 0,92 h 13,2 C 7,2 km/h (2 Bft)
08.06.2016 15:00 18,3 C 21,6 C 70 % 1019,6 hPa 0,0 mm 7,6 km/h (2 Bft) W 0,67 h 12,6 C 11,7 km/h (2 Bft)
08.06.2016 16:00 17,6 C 19,4 C 69 % 1019,1 hPa 0,0 mm 5,0 km/h (1 Bft) NW 0,00 h 12,0 C 5,2 km/h (1 Bft)
08.06.2016 17:00 16,7 C 17,1 C 73 % 1018,5 hPa 1,4 mm 0,8 km/h (0 Bft) N-NO 0,00 h 11,7 C 0,6 km/h (0 Bft)
08.06.2016 18:00 17,1 C 17,8 C 75 % 1018,0 hPa 0,0 mm 6,5 km/h (2 Bft) W 0,00 h 12,7 C 11,0 km/h (2 Bft)
08.06.2016 19:00 16,0 C 16,2 C 72 % 1018,0 hPa 0,0 mm 5,4 km/h (1 Bft) SW 0,00 h 11,0 C 6,7 km/h (2 Bft)
08.06.2016 20:00 15,3 C 15,3 C 74 % 1018,2 hPa 0,0 mm 2,1 km/h (1 Bft) NW 0,00 h 10,6 C 4,6 km/h (1 Bft)
08.06.2016 21:00 14,1 C 13,5 C 78 % 1018,1 hPa 0,7 mm 1,0 km/h (0 Bft) S 0,00 h 10,3 C 1,1 km/h (1 Bft)
08.06.2016 22:00 13,2 C 12,9 C 82 % 1018,0 hPa 0,7 mm 0,8 km/h (0 Bft) N-NO 0,00 h 10,1 C 0,0 km/h (0 Bft)
08.06.2016 23:00 12,7 C 12,5 C 84 % 1017,7 hPa 1,4 mm 0,9 km/h (0 Bft) W-NW 0,00 h 10,0 C 1,2 km/h (1 Bft)
09.06.2016 00:00 12,5 C 12,5 C 85 % 1017,6 hPa 2,1 mm 0,0 km/h (0 Bft) N 0,00 h 10,1 C 0,0 km/h (0 Bft)
09.06.2016 01:00 12,5 C 12,5 C 86 % 1017,5 hPa 1,4 mm 2,2 km/h (1 Bft) W 0,00 h 10,2 C 5,1 km/h (1 Bft)
09.06.2016 02:00 12,4 C 12,2 C 87 % 1017,2 hPa 6,2 mm 2,8 km/h (1 Bft) S 0,00 h 10,2 C 3,1 km/h (1 Bft)
09.06.2016 03:00 12,2 C 12,0 C 87 % 1016,7 hPa 0,7 mm 2,1 km/h (1 Bft) W-SW 0,00 h 10,1 C 2,0 km/h (1 Bft)
09.06.2016 04:00 12,0 C 11,8 C 87 % 1016,4 hPa 0,0 mm 0,0 km/h (0 Bft) N 0,00 h 9,9 C 0,0 km/h (0 Bft)
09.06.2016 05:00 12,0 C 12,0 C 87 % 1016,4 hPa 0,0 mm 0,0 km/h (0 Bft) N 0,00 h 9,9 C 0,0 km/h (0 Bft)
09.06.2016 06:00 12,2 C 12,1 C 87 % 1016,5 hPa 0,0 mm 0,1 km/h (0 Bft) N 0,00 h 10,1 C 0,0 km/h (0 Bft)
09.06.2016 07:00 12,0 C 12,0 C 87 % 1016,5 hPa 0,7 mm 0,1 km/h (0 Bft) N 0,00 h 10,0 C 0,0 km/h (0 Bft)
09.06.2016 08:00 12,1 C 12,1 C 87 % 1016,4 hPa 3,4 mm 0,0 km/h (0 Bft) N 0,00 h 10,0 C 0,0 km/h (0 Bft)
09.06.2016 09:00 12,1 C 12,1 C 87 % 1016,5 hPa 11,7 mm 0,3 km/h (0 Bft) S-SW 0,00 h 10,0 C 0,8 km/h (0 Bft)
09.06.2016 10:00 12,4 C 12,5 C 88 % 1016,4 hPa 2,7 mm 4,3 km/h (1 Bft) W-NW 0,00 h 10,4 C 6,1 km/h (2 Bft)
09.06.2016 11:00 12,5 C 12,5 C 87 % 1016,7 hPa 4,8 mm 2,4 km/h (1 Bft) S-SO 0,00 h 10,4 C 2,4 km/h (1 Bft)
09.06.2016 12:00 12,5 C 12,5 C 87 % 1016,8 hPa 6,2 mm 3,2 km/h (1 Bft) NW 0,00 h 10,4 C 5,3 km/h (1 Bft)
09.06.2016 13:00 12,5 C 12,5 C 87 % 1017,2 hPa 2,1 mm 8,7 km/h (2 Bft) W-NW 0,00 h 10,4 C 11,3 km/h (2 Bft)
09.06.2016 14:00 12,5 C 12,6 C 87 % 1017,4 hPa 2,1 mm 3,8 km/h (1 Bft) NW 0,00 h 10,4 C 5,0 km/h (1 Bft)
09.06.2016 15:00 12,7 C 13,0 C 86 % 1017,3 hPa 0,0 mm 4,8 km/h (1 Bft) W 0,00 h 10,5 C 6,3 km/h (2 Bft)
09.06.2016 16:00 13,4 C 13,9 C 85 % 1017,3 hPa 0,0 mm 3,8 km/h (1 Bft) W-SW 0,00 h 10,9 C 5,9 km/h (2 Bft)
09.06.2016 17:00 13,5 C 14,9 C 84 % 1017,1 hPa 0,0 mm 2,6 km/h (1 Bft) W-NW 0,00 h 10,9 C 4,0 km/h (1 Bft)
09.06.2016 18:00 13,2 C 14,4 C 83 % 1017,0 hPa 0,0 mm 1,1 km/h (1 Bft) O-SO 0,00 h 10,4 C 2,4 km/h (1 Bft)
09.06.2016 19:00 14,0 C 16,0 C 81 % 1016,9 hPa 0,0 mm 1,1 km/h (1 Bft) S 0,00 h 10,9 C 0,6 km/h (0 Bft)
09.06.2016 20:00 13,0 C 13,8 C 82 % 1016,9 hPa 0,0 mm 0,3 km/h (0 Bft) N 0,00 h 10,0 C 0,0 km/h (0 Bft)
09.06.2016 21:00 11,9 C 11,7 C 84 % 1017,0 hPa 0,0 mm 4,4 km/h (1 Bft) W-SW 0,00 h 9,3 C 6,8 km/h (2 Bft)
09.06.2016 22:00 11,2 C 11,0 C 85 % 1017,0 hPa 0,0 mm 1,2 km/h (1 Bft) NO 0,00 h 8,8 C 1,3 km/h (1 Bft)
09.06.2016 23:00 10,3 C 9,9 C 86 % 1016,8 hPa 0,0 mm 0,0 km/h (0 Bft) N 0,00 h 8,0 C 0,0 km/h (0 Bft)
10.06.2016 00:00 9,3 C 8,9 C 86 % 1016,5 hPa 0,0 mm 0,1 km/h (0 Bft) SW 0,00 h 7,2 C 0,4 km/h (0 Bft)
10.06.2016 01:00 8,8 C 8,4 C 87 % 1015,9 hPa 0,0 mm 1,5 km/h (1 Bft) S 0,00 h 6,8 C 2,2 km/h (1 Bft)
10.06.2016 02:00 8,2 C 7,7 C 88 % 1015,6 hPa 0,0 mm 0,0 km/h (0 Bft) N 0,00 h 6,2 C 0,5 km/h (0 Bft)
10.06.2016 03:00 7,7 C 7,2 C 88 % 1015,2 hPa 0,0 mm 0,1 km/h (0 Bft) N 0,00 h 5,8 C 0,0 km/h (0 Bft)
10.06.2016 04:00 7,2 C 6,9 C 88 % 1014,9 hPa 0,0 mm 0,0 km/h (0 Bft) N 0,00 h 5,4 C 0,0 km/h (0 Bft)
10.06.2016 05:00 6,9 C 6,6 C 88 % 1014,7 hPa 0,0 mm 0,0 km/h (0 Bft) N 0,00 h 5,1 C 0,0 km/h (0 Bft)
10.06.2016 06:00 8,8 C 11,5 C 88 % 1014,6 hPa 0,0 mm 0,0 km/h (0 Bft) N 0,50 h 6,9 C 0,0 km/h (0 Bft)
10.06.2016 07:00 12,8 C 20,3 C 85 % 1014,6 hPa 0,0 mm 0,0 km/h (0 Bft) N 1,00 h 10,3 C 0,0 km/h (0 Bft)
10.06.2016 08:00 15,9 C 25,5 C 74 % 1014,8 hPa 0,7 mm 0,2 km/h (0 Bft) O-SO 1,00 h 11,1 C 0,9 km/h (0 Bft)
10.06.2016 09:00 18,6 C 25,5 C 62 % 1015,4 hPa 0,0 mm 3,2 km/h (1 Bft) W 1,00 h 11,2 C 6,6 km/h (2 Bft)
10.06.2016 10:00 19,0 C 24,4 C 55 % 1015,8 hPa 0,0 mm 7,5 km/h (2 Bft) W-NW 1,00 h 9,8 C 9,6 km/h (2 Bft)
10.06.2016 11:00 19,6 C 25,3 C 50 % 1016,0 hPa 0,0 mm 4,8 km/h (1 Bft) N-NW 1,00 h 8,8 C 6,2 km/h (2 Bft)
10.06.2016 12:00 20,1 C 25,7 C 48 % 1015,9 hPa 0,0 mm 5,0 km/h (1 Bft) O-SO 0,98 h 8,6 C 7,1 km/h (2 Bft)
10.06.2016 13:00 20,5 C 25,6 C 48 % 1015,2 hPa 0,0 mm 7,1 km/h (2 Bft) NW 1,00 h 9,2 C 9,9 km/h (2 Bft)
10.06.2016 14:00 20,7 C 25,9 C 48 % 1014,4 hPa 0,0 mm 7,1 km/h (2 Bft) NW 1,00 h 9,2 C 10,4 km/h (2 Bft)
10.06.2016 15:00 21,2 C 26,8 C 45 % 1013,9 hPa 0,0 mm 5,9 km/h (2 Bft) N-NW 1,00 h 8,9 C 7,7 km/h (2 Bft)
10.06.2016 16:00 20,4 C 26,9 C 45 % 1013,5 hPa 0,0 mm 5,4 km/h (1 Bft) NO 1,00 h 8,0 C 6,5 km/h (2 Bft)
10.06.2016 17:00 20,0 C 22,0 C 48 % 1013,3 hPa 0,0 mm 4,9 km/h (1 Bft) NO 0,17 h 8,5 C 6,1 km/h (2 Bft)
10.06.2016 18:00 19,6 C 21,1 C 49 % 1013,1 hPa 0,0 mm 7,1 km/h (2 Bft) O-NO 0,17 h 8,7 C 8,9 km/h (2 Bft)
10.06.2016 19:00 19,1 C 23,3 C 51 % 1013,1 hPa 0,0 mm 4,4 km/h (1 Bft) O-NO 1,00 h 8,6 C 5,1 km/h (1 Bft)
10.06.2016 20:00 17,5 C 19,6 C 55 % 1013,1 hPa 0,0 mm 0,1 km/h (0 Bft) N 0,58 h 8,4 C 0,0 km/h (0 Bft)
10.06.2016 21:00 14,9 C 14,0 C 63 % 1013,0 hPa 0,0 mm 0,0 km/h (0 Bft) N 0,00 h 7,8 C 0,0 km/h (0 Bft)
10.06.2016 22:00 14,4 C 11,2 C 64 % 1013,0 hPa 0,0 mm 0,0 km/h (0 Bft) N 0,00 h 7,7 C 0,0 km/h (0 Bft)
10.06.2016 23:00 10,0 C 10,2 C 44 % 1012,8 hPa 0,0 mm 0,0 km/h (0 Bft) N 0,00 h -13,1 C 0,0 km/h (0 Bft)
11.06.2016 00:00 7,2 C 10,0 C 55 % 1012,6 hPa 0,0 mm 0,0 km/h (0 Bft) N 0,00 h -13,7 C 0,0 km/h (0 Bft)
11.06.2016 01:00 10,3 C 9,9 C 79 % 1012,2 hPa 0,0 mm 0,0 km/h (0 Bft) N 0,00 h 6,9 C 0,0 km/h (0 Bft)
11.06.2016 02:00 10,4 C 8,9 C 80 % 1011,9 hPa 0,0 mm 0,0 km/h (0 Bft) N 0,00 h 7,1 C 0,0 km/h (0 Bft)
11.06.2016 03:00 10,6 C 7,1 C 81 % 1011,5 hPa 0,0 mm 0,0 km/h (0 Bft) N 0,00 h 7,4 C 0,0 km/h (0 Bft)
11.06.2016 04:00 10,7 C 7,1 C 81 % 1010,9 hPa 0,0 mm 0,0 km/h (0 Bft) N 0,00 h 7,5 C 0,0 km/h (0 Bft)
11.06.2016 05:00 10,6 C 10,2 C 82 % 1010,9 hPa 0,0 mm 0,0 km/h (0 Bft) N 0,00 h 7,5 C 0,0 km/h (0 Bft)
11.06.2016 06:00 11,2 C 11,0 C 81 % 1011,2 hPa 0,0 mm 0,0 km/h (0 Bft) N 0,00 h 8,1 C 0,0 km/h (0 Bft)
11.06.2016 07:00 12,4 C 12,5 C 79 % 1012,0 hPa 0,0 mm 2,6 km/h (1 Bft) W-SW 0,00 h 9,0 C 6,1 km/h (2 Bft)
11.06.2016 08:00 13,3 C 13,1 C 79 % 1012,7 hPa 0,0 mm 1,0 km/h (0 Bft) NW 0,00 h 9,6 C 0,9 km/h (0 Bft)
11.06.2016 09:00 13,5 C 13,9 C 79 % 1013,0 hPa 0,0 mm 0,2 km/h (0 Bft) W 0,00 h 9,9 C 0,0 km/h (0 Bft)
11.06.2016 10:00 13,7 C 13,9 C 81 % 1013,4 hPa 0,7 mm 0,0 km/h (0 Bft) N 0,00 h 10,4 C 0,0 km/h (0 Bft)
11.06.2016 11:00 13,3 C 13,3 C 81 % 1013,6 hPa 1,4 mm 0,3 km/h (0 Bft) N 0,00 h 10,1 C 0,0 km/h (0 Bft)
11.06.2016 12:00 15,0 C 14,9 C 80 % 1013,4 hPa 0,0 mm 0,3 km/h (0 Bft) NW 0,08 h 11,6 C 0,0 km/h (0 Bft)
11.06.2016 13:00 15,8 C 19,3 C 76 % 1013,4 hPa 0,0 mm 2,0 km/h (1 Bft) O-SO 0,92 h 11,7 C 2,1 km/h (1 Bft)
11.06.2016 14:00 16,8 C 17,2 C 73 % 1013,4 hPa 0,0 mm 0,0 km/h (0 Bft) N 0,25 h 11,9 C 0,0 km/h (0 Bft)
11.06.2016 15:00 16,8 C 17,7 C 73 % 1013,0 hPa 0,0 mm 1,5 km/h (1 Bft) W-NW 0,17 h 11,8 C 2,1 km/h (1 Bft)
11.06.2016 16:00 17,0 C 20,7 C 67 % 1012,8 hPa 0,0 mm 8,4 km/h (2 Bft) NW 0,75 h 10,8 C 14,7 km/h (3 Bft)
11.06.2016 17:00 17,1 C 18,9 C 62 % 1012,9 hPa 0,0 mm 9,1 km/h (2 Bft) W 0,08 h 9,9 C 11,9 km/h (2 Bft)
11.06.2016 18:00 16,4 C 17,3 C 64 % 1012,8 hPa 0,0 mm 6,4 km/h (2 Bft) W-SW 0,00 h 9,5 C 7,2 km/h (2 Bft)
11.06.2016 19:00 15,6 C 15,8 C 67 % 1013,0 hPa 0,0 mm 1,4 km/h (1 Bft) SW 0,00 h 9,5 C 1,3 km/h (1 Bft)
11.06.2016 20:00 15,1 C 15,1 C 69 % 1013,1 hPa 0,0 mm 2,1 km/h (1 Bft) S-SW 0,00 h 9,4 C 3,0 km/h (1 Bft)
11.06.2016 21:00 13,9 C 13,7 C 71 % 1013,3 hPa 0,0 mm 1,0 km/h (0 Bft) SW 0,00 h 8,8 C 1,4 km/h (1 Bft)
11.06.2016 22:00 13,3 C 13,0 C 74 % 1013,5 hPa 0,0 mm 2,5 km/h (1 Bft) W-SW 0,00 h 8,6 C 3,1 km/h (1 Bft)
11.06.2016 23:00 12,5 C 12,2 C 75 % 1013,8 hPa 0,0 mm 4,2 km/h (1 Bft) W-SW 0,00 h 8,3 C 7,2 km/h (2 Bft)
12.06.2016 00:00 12,5 C 12,5 C 74 % 1013,5 hPa 0,0 mm 7,1 km/h (2 Bft) S 0,00 h 8,0 C 10,0 km/h (2 Bft)
12.06.2016 01:00 11,8 C 11,5 C 74 % 1013,4 hPa 0,0 mm 3,4 km/h (1 Bft) S-SW 0,00 h 7,4 C 4,0 km/h (1 Bft)
12.06.2016 02:00 10,7 C 10,4 C 79 % 1013,2 hPa 0,0 mm 0,5 km/h (0 Bft) S 0,00 h 7,2 C 1,9 km/h (1 Bft)
12.06.2016 03:00 10,6 C 10,4 C 82 % 1012,9 hPa 0,7 mm 0,0 km/h (0 Bft) N 0,00 h 7,7 C 0,0 km/h (0 Bft)
12.06.2016 04:00 10,7 C 10,4 C 84 % 1012,5 hPa 0,0 mm 0,0 km/h (0 Bft) N 0,00 h 8,0 C 0,0 km/h (0 Bft)
12.06.2016 05:00 10,7 C 9,9 C 85 % 1012,5 hPa 0,0 mm 0,0 km/h (0 Bft) N 0,00 h 8,2 C 0,0 km/h (0 Bft)
12.06.2016 06:00 11,1 C 7,5 C 85 % 1012,8 hPa 0,0 mm 0,0 km/h (0 Bft) N 0,00 h 8,6 C 0,0 km/h (0 Bft)
12.06.2016 07:00 12,0 C 8,2 C 84 % 1012,7 hPa 0,0 mm 0,0 km/h (0 Bft) N 0,00 h 9,3 C 0,0 km/h (0 Bft)
12.06.2016 08:00 13,6 C 9,5 C 82 % 1012,7 hPa 0,0 mm 0,0 km/h (0 Bft) N 0,00 h 10,5 C 0,0 km/h (0 Bft)
12.06.2016 09:00 15,2 C 10,5 C 75 % 1012,9 hPa 0,0 mm 0,0 km/h (0 Bft) N 0,00 h 10,9 C 0,0 km/h (0 Bft)
12.06.2016 10:00 15,9 C 12,5 C 71 % 1012,9 hPa 0,0 mm 1,2 km/h (1 Bft) W 0,17 h 10,5 C 2,4 km/h (1 Bft)
12.06.2016 11:00 17,1 C 20,4 C 64 % 1012,7 hPa 0,0 mm 7,0 km/h (2 Bft) W-SW 0,58 h 10,2 C 11,5 km/h (2 Bft)
12.06.2016 12:00 18,7 C 22,9 C 58 % 1012,5 hPa 0,0 mm 8,2 km/h (2 Bft) NW 0,83 h 10,4 C 13,1 km/h (3 Bft)
12.06.2016 13:00 19,8 C 24,0 C 55 % 1012,2 hPa 0,0 mm 12,3 km/h (3 Bft) W 0,67 h 10,5 C 18,6 km/h (3 Bft)
12.06.2016 14:00 18,5 C 21,7 C 57 % 1012,1 hPa 0,0 mm 16,8 km/h (3 Bft) W 0,33 h 9,9 C 24,9 km/h (4 Bft)
12.06.2016 15:00 18,4 C 22,3 C 59 % 1011,8 hPa 0,0 mm 17,3 km/h (3 Bft) W-NW 0,58 h 10,2 C 22,0 km/h (4 Bft)
12.06.2016 16:00 16,9 C 19,6 C 59 % 1011,9 hPa 0,0 mm 17,0 km/h (3 Bft) W 0,33 h 8,8 C 21,9 km/h (4 Bft)
12.06.2016 17:00 16,5 C 18,3 C 60 % 1011,8 hPa 0,0 mm 15,9 km/h (3 Bft) W-SW 0,00 h 8,6 C 23,4 km/h (4 Bft)
12.06.2016 18:00 15,5 C 16,7 C 64 % 1011,5 hPa 0,0 mm 10,1 km/h (2 Bft) NW 0,00 h 8,6 C 14,5 km/h (3 Bft)
12.06.2016 19:00 15,6 C 17,7 C 62 % 1011,2 hPa 0,0 mm 8,1 km/h (2 Bft) W 0,33 h 8,5 C 11,9 km/h (2 Bft)
12.06.2016 20:00 14,5 C 14,6 C 66 % 1011,3 hPa 0,0 mm 7,3 km/h (2 Bft) NO 0,00 h 8,2 C 7,1 km/h (2 Bft)
12.06.2016 21:00 13,9 C 13,8 C 69 % 1011,4 hPa 0,0 mm 3,1 km/h (1 Bft) SW 0,00 h 8,2 C 1,1 km/h (1 Bft)
12.06.2016 22:00 13,6 C 13,3 C 70 % 1011,6 hPa 0,0 mm 5,1 km/h (1 Bft) W 0,00 h 8,3 C 7,0 km/h (2 Bft)
12.06.2016 23:00 12,9 C 12,4 C 75 % 1011,6 hPa 0,0 mm 1,6 km/h (1 Bft) NW 0,00 h 8,5 C 1,5 km/h (1 Bft)
Min-Datum _ 11.06.16 07.06.16 11.06.16 06.06.16 - 12.06.16 - - 11.06.16 12.06.16
_ Min-Zeit 00:00 05:25 00:00 12:10 - 23:05 - - 00:00 23:00
Minimum _ 0,0 C 5,8 C 0 % 1004,0 hPa - 0,0 km/h (0 Bft) - - -60,0 C 0,0 km/h (0 Bft)
Max-Datum _ 07.06.16 07.06.16 10.06.16 07.06.16 09.06.16 12.06.16 - 12.06.16 07.06.16 12.06.16
_ Max-Zeit 14:50 14:50 07:00 12:00 09:15 16:15 - 19:05 09:00 17:25
Maximum _ 24,7 C 30,8 C 88 % 1023,8 hPa 11,7 mm 25,9 km/h
W (4 Bft)
- 0,08 h 14,5 C 61,7 km/h
W-SW (7 Bft)
Durchschnitt _ 14,8 C 16,0 C 73 % 1016,2 hPa #53,6 mm 2,9 km/h (1 Bft) NW #39:38 h 9,6 C 4,0 km/h (1 Bft)